sensor_id;sensor_type;location;lat;lon;timestamp;pressure;altitude;pressure_sealevel;temperature;humidity
4199;BME280;2113;50.946;14.610;2023-01-15T00:02:13;95835.84;;;6.89;70.04
4199;BME280;2113;50.946;14.610;2023-01-15T00:04:43;95836.28;;;6.78;69.84
4199;BME280;2113;50.946;14.610;2023-01-15T00:07:11;95822.81;;;6.92;69.79
4199;BME280;2113;50.946;14.610;2023-01-15T00:09:41;95826.41;;;6.88;70.13
4199;BME280;2113;50.946;14.610;2023-01-15T00:12:09;95819.06;;;6.78;70.04
4199;BME280;2113;50.946;14.610;2023-01-15T00:14:37;95821.25;;;6.88;69.54
4199;BME280;2113;50.946;14.610;2023-01-15T00:17:05;95818.44;;;6.94;69.67
4199;BME280;2113;50.946;14.610;2023-01-15T00:19:34;95838.47;;;6.66;70.74
4199;BME280;2113;50.946;14.610;2023-01-15T00:22:02;95839.34;;;6.88;69.88
4199;BME280;2113;50.946;14.610;2023-01-15T00:24:30;95834.81;;;6.72;70.68
4199;BME280;2113;50.946;14.610;2023-01-15T00:27:17;95836.88;;;7.05;69.89
4199;BME280;2113;50.946;14.610;2023-01-15T00:30:04;95837.53;;;6.90;71.07
4199;BME280;2113;50.946;14.610;2023-01-15T00:32:36;95847.41;;;6.80;70.78
4199;BME280;2113;50.946;14.610;2023-01-15T00:35:05;95867.44;;;7.16;69.72
4199;BME280;2113;50.946;14.610;2023-01-15T00:37:34;95843.50;;;6.92;70.02
4199;BME280;2113;50.946;14.610;2023-01-15T00:40:03;95841.94;;;7.08;69.51
4199;BME280;2113;50.946;14.610;2023-01-15T00:42:32;95838.56;;;7.06;69.71
4199;BME280;2113;50.946;14.610;2023-01-15T00:45:03;95837.09;;;7.21;70.30
4199;BME280;2113;50.946;14.610;2023-01-15T00:47:36;95828.41;;;7.22;69.34
4199;BME280;2113;50.946;14.610;2023-01-15T00:50:07;95814.97;;;7.14;70.08
4199;BME280;2113;50.946;14.610;2023-01-15T00:52:36;95806.78;;;7.24;70.71
4199;BME280;2113;50.946;14.610;2023-01-15T00:55:05;95823.59;;;6.94;70.77
4199;BME280;2113;50.946;14.610;2023-01-15T00:57:35;95804.56;;;6.74;71.19
4199;BME280;2113;50.946;14.610;2023-01-15T01:00:05;95808.31;;;6.88;70.67
4199;BME280;2113;50.946;14.610;2023-01-15T01:02:34;95809.50;;;7.01;70.79
4199;BME280;2113;50.946;14.610;2023-01-15T01:05:03;95807.31;;;6.92;70.57
4199;BME280;2113;50.946;14.610;2023-01-15T01:07:31;95787.31;;;7.16;70.23
4199;BME280;2113;50.946;14.610;2023-01-15T01:09:59;95795.66;;;7.22;70.81
4199;BME280;2113;50.946;14.610;2023-01-15T01:12:28;95777.56;;;7.60;69.52
4199;BME280;2113;50.946;14.610;2023-01-15T01:14:57;95770.66;;;7.42;69.53
4199;BME280;2113;50.946;14.610;2023-01-15T01:17:25;95759.09;;;7.11;70.68
4199;BME280;2113;50.946;14.610;2023-01-15T01:19:54;95770.03;;;7.37;69.83
4199;BME280;2113;50.946;14.610;2023-01-15T01:22:22;95758.03;;;7.36;70.01
4199;BME280;2113;50.946;14.610;2023-01-15T01:24:50;95751.03;;;7.57;69.98
4199;BME280;2113;50.946;14.610;2023-01-15T01:27:21;95751.81;;;7.40;69.65
4199;BME280;2113;50.946;14.610;2023-01-15T01:29:49;95742.22;;;7.61;69.24
4199;BME280;2113;50.946;14.610;2023-01-15T01:32:19;95742.47;;;7.74;69.24
4199;BME280;2113;50.946;14.610;2023-01-15T01:34:47;95742.75;;;7.49;68.73
4199;BME280;2113;50.946;14.610;2023-01-15T01:37:15;95738.72;;;7.62;69.26
4199;BME280;2113;50.946;14.610;2023-01-15T01:39:44;95719.47;;;7.68;69.26
4199;BME280;2113;50.946;14.610;2023-01-15T01:42:14;95716.19;;;7.64;69.15
4199;BME280;2113;50.946;14.610;2023-01-15T01:45:02;95705.31;;;7.57;69.65
4199;BME280;2113;50.946;14.610;2023-01-15T01:47:34;95703.72;;;7.91;68.60
4199;BME280;2113;50.946;14.610;2023-01-15T01:50:07;95706.94;;;7.77;68.78
4199;BME280;2113;50.946;14.610;2023-01-15T01:52:39;95712.00;;;7.61;69.27
4199;BME280;2113;50.946;14.610;2023-01-15T01:55:10;95704.59;;;7.73;68.97
4199;BME280;2113;50.946;14.610;2023-01-15T01:57:39;95695.06;;;8.10;68.58
4199;BME280;2113;50.946;14.610;2023-01-15T02:00:09;95691.75;;;7.52;70.05
4199;BME280;2113;50.946;14.610;2023-01-15T02:02:45;95694.91;;;7.95;69.32
4199;BME280;2113;50.946;14.610;2023-01-15T02:05:17;95681.53;;;8.39;67.82
4199;BME280;2113;50.946;14.610;2023-01-15T02:07:48;95680.91;;;8.52;66.91
4199;BME280;2113;50.946;14.610;2023-01-15T02:10:17;95685.44;;;8.66;67.39
4199;BME280;2113;50.946;14.610;2023-01-15T02:12:50;95676.66;;;8.33;67.28
4199;BME280;2113;50.946;14.610;2023-01-15T02:15:25;95683.72;;;8.12;68.76
4199;BME280;2113;50.946;14.610;2023-01-15T02:18:01;95673.75;;;8.04;68.37
4199;BME280;2113;50.946;14.610;2023-01-15T02:20:36;95656.00;;;8.32;68.08
4199;BME280;2113;50.946;14.610;2023-01-15T02:23:27;95669.28;;;8.26;68.47
4199;BME280;2113;50.946;14.610;2023-01-15T02:26:12;95665.91;;;8.58;67.88
4199;BME280;2113;50.946;14.610;2023-01-15T02:28:52;95669.59;;;7.83;69.83
4199;BME280;2113;50.946;14.610;2023-01-15T02:31:26;95664.78;;;8.64;67.68
4199;BME280;2113;50.946;14.610;2023-01-15T02:33:59;95645.78;;;8.29;67.79
4199;BME280;2113;50.946;14.610;2023-01-15T02:36:36;95654.81;;;8.56;67.94
4199;BME280;2113;50.946;14.610;2023-01-15T02:39:11;95655.09;;;8.15;69.37
4199;BME280;2113;50.946;14.610;2023-01-15T02:41:45;95644.34;;;8.23;69.21
4199;BME280;2113;50.946;14.610;2023-01-15T02:44:18;95652.59;;;8.49;68.56
4199;BME280;2113;50.946;14.610;2023-01-15T02:46:53;95659.81;;;8.07;69.28
4199;BME280;2113;50.946;14.610;2023-01-15T02:49:25;95651.53;;;8.18;68.52
4199;BME280;2113;50.946;14.610;2023-01-15T02:51:59;95655.75;;;8.36;68.82
4199;BME280;2113;50.946;14.610;2023-01-15T02:54:33;95649.97;;;8.66;67.94
4199;BME280;2113;50.946;14.610;2023-01-15T02:57:03;95638.41;;;8.56;68.05
4199;BME280;2113;50.946;14.610;2023-01-15T02:59:37;95649.03;;;8.67;67.92
4199;BME280;2113;50.946;14.610;2023-01-15T03:05:27;95633.63;;;8.81;66.70
4199;BME280;2113;50.946;14.610;2023-01-15T03:08:12;95634.59;;;9.12;66.95
4199;BME280;2113;50.946;14.610;2023-01-15T03:11:02;95631.03;;;9.31;66.09
4199;BME280;2113;50.946;14.610;2023-01-15T03:14:03;95622.50;;;8.79;68.12
4199;BME280;2113;50.946;14.610;2023-01-15T03:17:12;95617.38;;;8.62;69.26
4199;BME280;2113;50.946;14.610;2023-01-15T03:19:45;95603.44;;;8.80;67.99
4199;BME280;2113;50.946;14.610;2023-01-15T03:22:20;95592.78;;;8.87;68.07
4199;BME280;2113;50.946;14.610;2023-01-15T03:24:52;95587.81;;;8.98;68.14
4199;BME280;2113;50.946;14.610;2023-01-15T03:27:22;95580.63;;;9.51;66.52
4199;BME280;2113;50.946;14.610;2023-01-15T03:30:02;95565.44;;;8.81;68.56
4199;BME280;2113;50.946;14.610;2023-01-15T03:32:33;95547.19;;;9.14;67.65
4199;BME280;2113;50.946;14.610;2023-01-15T03:35:06;95562.09;;;9.57;66.30
4199;BME280;2113;50.946;14.610;2023-01-15T03:37:42;95554.53;;;8.90;68.45
4199;BME280;2113;50.946;14.610;2023-01-15T03:40:11;95561.16;;;9.12;67.67
4199;BME280;2113;50.946;14.610;2023-01-15T03:42:46;95540.41;;;9.28;67.45
4199;BME280;2113;50.946;14.610;2023-01-15T03:45:37;95529.81;;;9.00;68.44
4199;BME280;2113;50.946;14.610;2023-01-15T03:48:16;95535.41;;;8.93;68.13
4199;BME280;2113;50.946;14.610;2023-01-15T03:50:58;95524.78;;;9.13;67.68
4199;BME280;2113;50.946;14.610;2023-01-15T03:53:32;95530.41;;;9.36;67.17
4199;BME280;2113;50.946;14.610;2023-01-15T03:56:13;95522.72;;;9.50;66.65
4199;BME280;2113;50.946;14.610;2023-01-15T03:58:50;95532.31;;;9.18;67.51
4199;BME280;2113;50.946;14.610;2023-01-15T04:01:31;95531.09;;;9.70;66.12
4199;BME280;2113;50.946;14.610;2023-01-15T04:04:02;95516.47;;;9.23;67.99
4199;BME280;2113;50.946;14.610;2023-01-15T04:06:33;95537.47;;;9.34;68.51
4199;BME280;2113;50.946;14.610;2023-01-15T04:09:05;95528.97;;;9.00;69.24
4199;BME280;2113;50.946;14.610;2023-01-15T04:11:35;95515.41;;;9.11;69.70
4199;BME280;2113;50.946;14.610;2023-01-15T04:14:05;95514.34;;;8.99;69.83
4199;BME280;2113;50.946;14.610;2023-01-15T04:16:47;95523.53;;;9.05;69.68
4199;BME280;2113;50.946;14.610;2023-01-15T04:19:17;95510.22;;;9.27;69.10
4199;BME280;2113;50.946;14.610;2023-01-15T04:21:55;95513.88;;;9.23;68.83
4199;BME280;2113;50.946;14.610;2023-01-15T04:24:24;95515.50;;;8.77;71.01
4199;BME280;2113;50.946;14.610;2023-01-15T04:26:52;95518.16;;;9.24;70.04
4199;BME280;2113;50.946;14.610;2023-01-15T04:29:20;95519.59;;;9.13;69.91
4199;BME280;2113;50.946;14.610;2023-01-15T04:31:49;95522.44;;;8.93;70.71
4199;BME280;2113;50.946;14.610;2023-01-15T04:34:25;95513.06;;;9.22;69.21
4199;BME280;2113;50.946;14.610;2023-01-15T04:36:54;95507.88;;;8.90;71.00
4199;BME280;2113;50.946;14.610;2023-01-15T04:39:23;95513.25;;;9.03;70.04
4199;BME280;2113;50.946;14.610;2023-01-15T04:41:51;95507.94;;;9.20;69.84
4199;BME280;2113;50.946;14.610;2023-01-15T04:44:37;95518.13;;;9.39;69.57
4199;BME280;2113;50.946;14.610;2023-01-15T04:47:05;95508.75;;;9.37;69.54
4199;BME280;2113;50.946;14.610;2023-01-15T04:49:35;95519.91;;;9.07;70.07
4199;BME280;2113;50.946;14.610;2023-01-15T04:52:03;95507.16;;;9.04;70.13
4199;BME280;2113;50.946;14.610;2023-01-15T04:54:32;95510.72;;;9.17;70.03
4199;BME280;2113;50.946;14.610;2023-01-15T04:57:00;95475.38;;;8.85;71.42
4199;BME280;2113;50.946;14.610;2023-01-15T04:59:29;95485.72;;;9.16;70.28
4199;BME280;2113;50.946;14.610;2023-01-15T05:01:57;95470.03;;;8.88;70.72
4199;BME280;2113;50.946;14.610;2023-01-15T05:04:35;95482.44;;;9.29;70.62
4199;BME280;2113;50.946;14.610;2023-01-15T05:07:03;95485.13;;;9.11;70.76
4199;BME280;2113;50.946;14.610;2023-01-15T05:09:32;95477.03;;;9.17;71.23
4199;BME280;2113;50.946;14.610;2023-01-15T05:12:01;95482.31;;;9.00;70.97
4199;BME280;2113;50.946;14.610;2023-01-15T05:14:30;95473.75;;;8.98;71.31
4199;BME280;2113;50.946;14.610;2023-01-15T05:16:58;95483.31;;;9.13;71.13
4199;BME280;2113;50.946;14.610;2023-01-15T05:19:26;95466.97;;;9.11;70.86
4199;BME280;2113;50.946;14.610;2023-01-15T05:21:56;95483.97;;;9.01;71.61
4199;BME280;2113;50.946;14.610;2023-01-15T05:24:24;95490.91;;;8.69;71.93
4199;BME280;2113;50.946;14.610;2023-01-15T05:26:52;95481.69;;;9.11;71.17
4199;BME280;2113;50.946;14.610;2023-01-15T05:29:22;95471.03;;;8.85;71.87
4199;BME280;2113;50.946;14.610;2023-01-15T05:31:50;95468.09;;;9.37;70.31
4199;BME280;2113;50.946;14.610;2023-01-15T05:34:18;95469.00;;;8.90;70.70
4199;BME280;2113;50.946;14.610;2023-01-15T05:36:46;95478.75;;;9.17;70.68
4199;BME280;2113;50.946;14.610;2023-01-15T05:39:16;95476.34;;;8.98;70.79
4199;BME280;2113;50.946;14.610;2023-01-15T05:41:44;95457.72;;;9.37;69.63
4199;BME280;2113;50.946;14.610;2023-01-15T05:44:18;95470.00;;;9.19;69.28
4199;BME280;2113;50.946;14.610;2023-01-15T05:46:47;95465.22;;;9.12;69.95
4199;BME280;2113;50.946;14.610;2023-01-15T05:49:17;95472.75;;;9.16;69.92
4199;BME280;2113;50.946;14.610;2023-01-15T05:51:46;95463.22;;;9.01;69.86
4199;BME280;2113;50.946;14.610;2023-01-15T05:54:18;95455.69;;;9.12;68.80
4199;BME280;2113;50.946;14.610;2023-01-15T05:56:46;95466.13;;;9.27;68.75
4199;BME280;2113;50.946;14.610;2023-01-15T05:59:15;95467.19;;;9.23;68.41
4199;BME280;2113;50.946;14.610;2023-01-15T06:01:44;95466.38;;;9.52;67.96
4199;BME280;2113;50.946;14.610;2023-01-15T06:04:12;95441.97;;;9.10;68.15
4199;BME280;2113;50.946;14.610;2023-01-15T06:06:42;95459.53;;;9.05;68.27
4199;BME280;2113;50.946;14.610;2023-01-15T06:09:10;95453.06;;;9.28;68.03
4199;BME280;2113;50.946;14.610;2023-01-15T06:11:40;95451.88;;;9.34;67.42
4199;BME280;2113;50.946;14.610;2023-01-15T06:14:09;95439.25;;;9.28;67.19
4199;BME280;2113;50.946;14.610;2023-01-15T06:16:38;95449.63;;;9.28;66.88
4199;BME280;2113;50.946;14.610;2023-01-15T06:19:08;95449.25;;;9.50;66.99
4199;BME280;2113;50.946;14.610;2023-01-15T06:21:37;95442.78;;;9.27;67.04
4199;BME280;2113;50.946;14.610;2023-01-15T06:24:06;95444.59;;;9.55;66.26
4199;BME280;2113;50.946;14.610;2023-01-15T06:26:36;95431.84;;;9.21;66.37
4199;BME280;2113;50.946;14.610;2023-01-15T06:29:06;95429.56;;;9.46;66.29
4199;BME280;2113;50.946;14.610;2023-01-15T06:31:34;95440.22;;;9.41;66.36
4199;BME280;2113;50.946;14.610;2023-01-15T06:34:03;95433.19;;;9.43;65.82
4199;BME280;2113;50.946;14.610;2023-01-15T06:36:31;95437.31;;;9.62;65.12
4199;BME280;2113;50.946;14.610;2023-01-15T06:38:59;95436.00;;;9.54;65.69
4199;BME280;2113;50.946;14.610;2023-01-15T06:41:31;95438.72;;;9.37;65.52
4199;BME280;2113;50.946;14.610;2023-01-15T06:44:18;95424.06;;;9.66;64.74
4199;BME280;2113;50.946;14.610;2023-01-15T06:47:12;95436.13;;;9.67;64.98
4199;BME280;2113;50.946;14.610;2023-01-15T06:49:52;95445.41;;;9.41;65.46
4199;BME280;2113;50.946;14.610;2023-01-15T06:52:22;95449.47;;;9.75;64.49
4199;BME280;2113;50.946;14.610;2023-01-15T06:54:51;95447.25;;;9.69;64.56
4199;BME280;2113;50.946;14.610;2023-01-15T06:57:19;95451.88;;;9.78;64.41
4199;BME280;2113;50.946;14.610;2023-01-15T06:59:49;95461.44;;;9.92;63.68
4199;BME280;2113;50.946;14.610;2023-01-15T07:02:18;95453.81;;;9.75;63.95
4199;BME280;2113;50.946;14.610;2023-01-15T07:04:47;95454.53;;;9.63;64.37
4199;BME280;2113;50.946;14.610;2023-01-15T07:07:18;95464.44;;;9.56;64.61
4199;BME280;2113;50.946;14.610;2023-01-15T07:09:46;95469.59;;;9.86;63.91
4199;BME280;2113;50.946;14.610;2023-01-15T07:12:15;95458.84;;;10.07;63.13
4199;BME280;2113;50.946;14.610;2023-01-15T07:14:44;95461.25;;;9.81;63.85
4199;BME280;2113;50.946;14.610;2023-01-15T07:17:14;95468.47;;;9.76;64.13
4199;BME280;2113;50.946;14.610;2023-01-15T07:19:43;95471.94;;;10.05;62.97
4199;BME280;2113;50.946;14.610;2023-01-15T07:22:12;95463.72;;;9.68;64.01
4199;BME280;2113;50.946;14.610;2023-01-15T07:24:40;95458.56;;;9.83;64.07
4199;BME280;2113;50.946;14.610;2023-01-15T07:27:08;95456.38;;;10.05;63.08
4199;BME280;2113;50.946;14.610;2023-01-15T07:29:37;95456.25;;;9.92;63.77
4199;BME280;2113;50.946;14.610;2023-01-15T07:32:06;95459.22;;;9.86;63.42
4199;BME280;2113;50.946;14.610;2023-01-15T07:34:36;95454.41;;;9.94;63.42
4199;BME280;2113;50.946;14.610;2023-01-15T07:37:04;95444.56;;;10.14;62.74
4199;BME280;2113;50.946;14.610;2023-01-15T07:39:33;95454.19;;;9.69;63.69
4199;BME280;2113;50.946;14.610;2023-01-15T07:42:01;95444.59;;;9.99;63.34
4199;BME280;2113;50.946;14.610;2023-01-15T07:44:48;95444.38;;;10.17;62.93
4199;BME280;2113;50.946;14.610;2023-01-15T07:47:34;95443.44;;;9.89;63.26
4199;BME280;2113;50.946;14.610;2023-01-15T07:50:23;95441.41;;;10.09;62.55
4199;BME280;2113;50.946;14.610;2023-01-15T07:52:51;95446.59;;;9.94;63.23
4199;BME280;2113;50.946;14.610;2023-01-15T07:55:19;95442.44;;;9.92;63.07
4199;BME280;2113;50.946;14.610;2023-01-15T07:57:49;95456.25;;;10.21;62.61
4199;BME280;2113;50.946;14.610;2023-01-15T08:00:20;95447.47;;;10.09;63.23
4199;BME280;2113;50.946;14.610;2023-01-15T08:02:49;95456.06;;;9.95;63.46
4199;BME280;2113;50.946;14.610;2023-01-15T08:05:18;95458.13;;;10.48;62.01
4199;BME280;2113;50.946;14.610;2023-01-15T08:07:48;95447.91;;;10.16;62.74
4199;BME280;2113;50.946;14.610;2023-01-15T08:10:17;95459.69;;;10.22;62.98
4199;BME280;2113;50.946;14.610;2023-01-15T08:12:48;95472.03;;;10.04;64.17
4199;BME280;2113;50.946;14.610;2023-01-15T08:15:38;95464.63;;;10.41;63.15
4199;BME280;2113;50.946;14.610;2023-01-15T08:18:07;95468.22;;;10.24;63.31
4199;BME280;2113;50.946;14.610;2023-01-15T08:20:35;95467.31;;;10.53;62.34
4199;BME280;2113;50.946;14.610;2023-01-15T08:23:05;95468.13;;;10.11;63.96
4199;BME280;2113;50.946;14.610;2023-01-15T08:25:33;95478.47;;;9.68;66.44
4199;BME280;2113;50.946;14.610;2023-01-15T08:28:01;95468.09;;;9.68;65.43
4199;BME280;2113;50.946;14.610;2023-01-15T08:30:30;95481.88;;;9.68;66.06
4199;BME280;2113;50.946;14.610;2023-01-15T08:32:59;95487.78;;;9.56;67.29
4199;BME280;2113;50.946;14.610;2023-01-15T08:35:29;95515.63;;;9.68;68.23
4199;BME280;2113;50.946;14.610;2023-01-15T08:37:57;95547.69;;;9.37;68.84
4199;BME280;2113;50.946;14.610;2023-01-15T08:40:27;95542.28;;;9.56;69.12
4199;BME280;2113;50.946;14.610;2023-01-15T08:42:55;95545.09;;;9.67;69.11
4199;BME280;2113;50.946;14.610;2023-01-15T08:45:24;95553.09;;;9.48;69.69
4199;BME280;2113;50.946;14.610;2023-01-15T08:47:54;95561.41;;;9.07;70.73
4199;BME280;2113;50.946;14.610;2023-01-15T08:50:23;95564.22;;;8.55;71.70
4199;BME280;2113;50.946;14.610;2023-01-15T08:52:51;95582.69;;;7.79;70.98
4199;BME280;2113;50.946;14.610;2023-01-15T08:55:20;95575.97;;;7.57;71.96
4199;BME280;2113;50.946;14.610;2023-01-15T08:57:49;95588.91;;;7.57;71.48
4199;BME280;2113;50.946;14.610;2023-01-15T09:00:18;95585.69;;;7.35;71.61
4199;BME280;2113;50.946;14.610;2023-01-15T09:02:47;95594.50;;;7.31;71.12
4199;BME280;2113;50.946;14.610;2023-01-15T09:05:16;95601.38;;;6.94;72.05
4199;BME280;2113;50.946;14.610;2023-01-15T09:07:45;95609.44;;;7.05;71.58
4199;BME280;2113;50.946;14.610;2023-01-15T09:10:14;95613.09;;;7.01;71.70
4199;BME280;2113;50.946;14.610;2023-01-15T09:12:44;95612.47;;;6.96;70.96
4199;BME280;2113;50.946;14.610;2023-01-15T09:15:14;95614.50;;;6.89;71.14
4199;BME280;2113;50.946;14.610;2023-01-15T09:17:43;95609.53;;;6.84;71.46
4199;BME280;2113;50.946;14.610;2023-01-15T09:20:12;95615.97;;;6.55;71.08
4199;BME280;2113;50.946;14.610;2023-01-15T09:22:41;95613.22;;;6.60;71.04
4199;BME280;2113;50.946;14.610;2023-01-15T09:25:10;95613.53;;;6.73;70.36
4199;BME280;2113;50.946;14.610;2023-01-15T09:27:38;95618.81;;;6.70;69.28
4199;BME280;2113;50.946;14.610;2023-01-15T09:30:08;95623.59;;;7.17;68.77
4199;BME280;2113;50.946;14.610;2023-01-15T09:32:39;95612.94;;;6.66;68.91
4199;BME280;2113;50.946;14.610;2023-01-15T09:35:07;95613.09;;;7.01;68.08
4199;BME280;2113;50.946;14.610;2023-01-15T09:37:36;95616.59;;;7.00;68.83
4199;BME280;2113;50.946;14.610;2023-01-15T09:40:06;95634.34;;;7.27;67.58
4199;BME280;2113;50.946;14.610;2023-01-15T09:42:42;95647.03;;;7.12;67.86
4199;BME280;2113;50.946;14.610;2023-01-15T09:45:19;95640.63;;;7.21;68.13
4199;BME280;2113;50.946;14.610;2023-01-15T09:48:01;95634.31;;;7.45;68.28
4199;BME280;2113;50.946;14.610;2023-01-15T09:50:41;95628.22;;;7.47;67.08
4199;BME280;2113;50.946;14.610;2023-01-15T09:53:23;95622.16;;;7.65;66.87
4199;BME280;2113;50.946;14.610;2023-01-15T09:55:59;95614.44;;;7.46;67.84
4199;BME280;2113;50.946;14.610;2023-01-15T09:58:32;95612.50;;;7.51;67.05
4199;BME280;2113;50.946;14.610;2023-01-15T10:01:01;95603.81;;;7.52;66.99
4199;BME280;2113;50.946;14.610;2023-01-15T10:03:36;95591.00;;;7.86;66.95
4199;BME280;2113;50.946;14.610;2023-01-15T10:06:13;95591.44;;;7.76;67.31
4199;BME280;2113;50.946;14.610;2023-01-15T10:08:44;95603.44;;;7.23;67.51
4199;BME280;2113;50.946;14.610;2023-01-15T10:11:25;95616.03;;;7.12;68.41
4199;BME280;2113;50.946;14.610;2023-01-15T10:14:30;95613.31;;;7.15;68.27
4199;BME280;2113;50.946;14.610;2023-01-15T10:17:20;95609.31;;;7.08;69.15
4199;BME280;2113;50.946;14.610;2023-01-15T10:19:51;95612.66;;;7.10;68.55
4199;BME280;2113;50.946;14.610;2023-01-15T10:22:30;95620.19;;;6.58;69.97
4199;BME280;2113;50.946;14.610;2023-01-15T10:25:08;95622.22;;;6.70;69.92
4199;BME280;2113;50.946;14.610;2023-01-15T10:27:46;95625.16;;;6.81;69.38
4199;BME280;2113;50.946;14.610;2023-01-15T10:30:22;95632.50;;;6.91;69.28
4199;BME280;2113;50.946;14.610;2023-01-15T10:32:55;95635.44;;;6.83;69.68
4199;BME280;2113;50.946;14.610;2023-01-15T10:35:36;95627.25;;;6.73;69.88
4199;BME280;2113;50.946;14.610;2023-01-15T10:38:15;95616.94;;;6.73;69.87
4199;BME280;2113;50.946;14.610;2023-01-15T10:40:58;95624.97;;;6.67;70.37
4199;BME280;2113;50.946;14.610;2023-01-15T10:43:40;95640.91;;;6.96;69.70
4199;BME280;2113;50.946;14.610;2023-01-15T10:46:12;95643.25;;;7.38;68.24
4199;BME280;2113;50.946;14.610;2023-01-15T10:48:45;95641.84;;;6.93;69.43
4199;BME280;2113;50.946;14.610;2023-01-15T10:51:18;95639.63;;;6.85;70.13
4199;BME280;2113;50.946;14.610;2023-01-15T10:53:51;95641.84;;;6.93;69.50
4199;BME280;2113;50.946;14.610;2023-01-15T10:56:30;95648.31;;;7.03;69.40
4199;BME280;2113;50.946;14.610;2023-01-15T10:59:05;95651.56;;;6.69;69.85
4199;BME280;2113;50.946;14.610;2023-01-15T11:01:39;95661.13;;;7.05;69.50
4199;BME280;2113;50.946;14.610;2023-01-15T11:04:09;95677.13;;;6.75;70.10
4199;BME280;2113;50.946;14.610;2023-01-15T11:06:40;95681.94;;;6.83;70.22
4199;BME280;2113;50.946;14.610;2023-01-15T11:09:18;95672.75;;;6.96;69.46
4199;BME280;2113;50.946;14.610;2023-01-15T11:11:49;95672.03;;;6.93;69.88
4199;BME280;2113;50.946;14.610;2023-01-15T11:14:38;95671.22;;;6.92;70.03
4199;BME280;2113;50.946;14.610;2023-01-15T11:17:27;95676.84;;;6.61;69.85
4199;BME280;2113;50.946;14.610;2023-01-15T11:20:26;95685.78;;;6.54;69.51
4199;BME280;2113;50.946;14.610;2023-01-15T11:23:06;95677.88;;;6.77;69.64
4199;BME280;2113;50.946;14.610;2023-01-15T11:25:36;95678.25;;;6.89;69.27
4199;BME280;2113;50.946;14.610;2023-01-15T11:28:10;95678.44;;;6.65;69.76
4199;BME280;2113;50.946;14.610;2023-01-15T11:30:41;95683.41;;;6.89;68.66
4199;BME280;2113;50.946;14.610;2023-01-15T11:33:21;95661.56;;;6.96;68.08
4199;BME280;2113;50.946;14.610;2023-01-15T11:35:51;95678.56;;;7.20;67.78
4199;BME280;2113;50.946;14.610;2023-01-15T11:38:26;95681.00;;;6.65;68.61
4199;BME280;2113;50.946;14.610;2023-01-15T11:40:57;95691.78;;;6.54;69.15
4199;BME280;2113;50.946;14.610;2023-01-15T11:43:29;95686.34;;;6.60;69.12
4199;BME280;2113;50.946;14.610;2023-01-15T11:46:31;95673.00;;;6.51;68.42
4199;BME280;2113;50.946;14.610;2023-01-15T11:49:18;95673.22;;;6.46;68.56
4199;BME280;2113;50.946;14.610;2023-01-15T11:52:07;95647.34;;;6.27;68.01
4199;BME280;2113;50.946;14.610;2023-01-15T11:54:41;95660.06;;;6.71;68.43
4199;BME280;2113;50.946;14.610;2023-01-15T11:57:11;95679.81;;;6.72;68.47
4199;BME280;2113;50.946;14.610;2023-01-15T11:59:39;95685.19;;;6.47;68.54
4199;BME280;2113;50.946;14.610;2023-01-15T12:02:20;95682.69;;;6.45;68.19
4199;BME280;2113;50.946;14.610;2023-01-15T12:04:53;95692.38;;;6.20;68.67
4199;BME280;2113;50.946;14.610;2023-01-15T12:07:23;95690.91;;;6.35;68.58
4199;BME280;2113;50.946;14.610;2023-01-15T12:10:18;95686.34;;;6.40;68.34
4199;BME280;2113;50.946;14.610;2023-01-15T12:13:19;95677.41;;;6.49;68.01
4199;BME280;2113;50.946;14.610;2023-01-15T12:15:57;95672.16;;;6.71;67.49
4199;BME280;2113;50.946;14.610;2023-01-15T12:21:31;95674.03;;;6.46;68.42
4199;BME280;2113;50.946;14.610;2023-01-15T12:24:41;95698.16;;;6.45;67.87
4199;BME280;2113;50.946;14.610;2023-01-15T12:27:26;95692.75;;;6.31;67.67
4199;BME280;2113;50.946;14.610;2023-01-15T12:30:02;95688.50;;;6.71;66.83
4199;BME280;2113;50.946;14.610;2023-01-15T12:32:40;95694.94;;;6.20;67.74
4199;BME280;2113;50.946;14.610;2023-01-15T12:35:16;95689.91;;;5.96;67.61
4199;BME280;2113;50.946;14.610;2023-01-15T12:37:50;95691.91;;;6.10;67.56
4199;BME280;2113;50.946;14.610;2023-01-15T12:40:24;95695.41;;;6.30;67.13
4199;BME280;2113;50.946;14.610;2023-01-15T12:42:56;95702.06;;;6.35;67.20
4199;BME280;2113;50.946;14.610;2023-01-15T12:45:46;95708.44;;;6.47;66.63
4199;BME280;2113;50.946;14.610;2023-01-15T12:48:21;95692.38;;;6.20;67.04
4199;BME280;2113;50.946;14.610;2023-01-15T12:50:57;95696.88;;;6.35;67.08
4199;BME280;2113;50.946;14.610;2023-01-15T12:53:29;95697.78;;;6.14;67.48
4199;BME280;2113;50.946;14.610;2023-01-15T12:56:04;95693.66;;;6.30;67.91
4199;BME280;2113;50.946;14.610;2023-01-15T12:58:41;95695.41;;;6.30;67.19
4199;BME280;2113;50.946;14.610;2023-01-15T13:01:14;95688.16;;;6.58;67.22
4199;BME280;2113;50.946;14.610;2023-01-15T13:03:50;95682.03;;;6.20;67.18
4199;BME280;2113;50.946;14.610;2023-01-15T13:06:23;95685.13;;;6.69;66.12
4199;BME280;2113;50.946;14.610;2023-01-15T13:09:00;95689.28;;;6.53;65.80
4199;BME280;2113;50.946;14.610;2023-01-15T13:11:30;95678.75;;;6.97;65.19
4199;BME280;2113;50.946;14.610;2023-01-15T13:14:00;95704.88;;;6.70;64.98
4199;BME280;2113;50.946;14.610;2023-01-15T13:16:37;95705.19;;;6.83;65.51
4199;BME280;2113;50.946;14.610;2023-01-15T13:19:26;95703.88;;;6.93;64.62
4199;BME280;2113;50.946;14.610;2023-01-15T13:22:00;95694.66;;;7.06;63.44
4199;BME280;2113;50.946;14.610;2023-01-15T13:25:01;95719.28;;;6.35;64.66
4199;BME280;2113;50.946;14.610;2023-01-15T13:27:46;95725.81;;;6.43;64.65
4199;BME280;2113;50.946;14.610;2023-01-15T13:30:32;95726.31;;;6.72;63.97
4199;BME280;2113;50.946;14.610;2023-01-15T13:33:15;95723.56;;;6.77;63.87
4199;BME280;2113;50.946;14.610;2023-01-15T13:35:47;95711.84;;;6.68;63.60
4199;BME280;2113;50.946;14.610;2023-01-15T13:38:20;95722.06;;;6.92;62.92
4199;BME280;2113;50.946;14.610;2023-01-15T13:40:52;95728.00;;;6.53;62.89
4199;BME280;2113;50.946;14.610;2023-01-15T13:43:33;95723.22;;;6.64;62.48
4199;BME280;2113;50.946;14.610;2023-01-15T13:46:04;95706.56;;;6.92;62.75
4199;BME280;2113;50.946;14.610;2023-01-15T13:48:40;95714.50;;;6.66;62.77
4199;BME280;2113;50.946;14.610;2023-01-15T13:51:24;95716.84;;;6.52;63.68
4199;BME280;2113;50.946;14.610;2023-01-15T13:53:55;95721.16;;;6.72;63.32
4199;BME280;2113;50.946;14.610;2023-01-15T13:56:26;95715.22;;;6.50;63.11
4199;BME280;2113;50.946;14.610;2023-01-15T13:58:56;95705.38;;;5.96;62.97
4199;BME280;2113;50.946;14.610;2023-01-15T14:01:32;95723.84;;;6.28;63.51
4199;BME280;2113;50.946;14.610;2023-01-15T14:04:04;95707.84;;;6.20;63.79